Whitney, Nebraska
Current Conditions -  °F | °C
As of 8:53 AM on Friday 24 Oct 2014 (Local Time) from KCDR Reporting Station
Clear Clear  
Wind Chill: 54°   Ceiling: Unl
Heat Index: 54°   Visibility: 10mi
Dew Point: 37°   Wind: 9mph
Humidity: 53%   Direction: 230°SW
Pressure: 30.02"   Gusts: NA
Location:  42.78°N, 103.26°W
Report Text: KCDR 241453Z AUTO 23008KT 10SM CLR 12/03 A3002 RMK AO2 SLP175 T01220028 53018
Loading
Personal Weather Stations






























Interactive Weather Map
Tropical Storm Tracking
New forecast layout! Learn more

10-Day Weather Forecast

Advertisements
Track Severe Weather on mobile